Terminal Aerodrome Forecast
Issued by NWS

Home | Current Version | Previous Version | Text Only | Print | Product List | Glossary On
Versions: 1 2 3 4 5 6 7 8 9 10 11 12 13 14 15 16 17 18 19 20
000
FTUS42 KGSP 012333
TAFGMU
TAF
KGMU 012333Z 0200/0224 18004KT P6SM BKN009 OVC024
     FM020500 23005KT 2SM BR OVC005
     FM021600 31003KT P6SM BKN015
     FM022000 36005KT P6SM BKN050=

USA.gov is the U.S. government's official web portal to all federal, state and local government web resources and services.